Time;durP1;ratioP1;P1;durP2;ratioP2;P2;SDS_P1;SDS_P2;PMS_P1;PMS_P2;Temp;Humidity;BMP_temperature;BMP_pressure;BME280_temperature;BME280_humidity;BME280_pressure;Samples;Min_cycle;Max_cycle;Signal;HPM_P1;HPM_P2
2022/07/27 00:00:23;;;;;;;3.97;1.08;;;20.90;75.80;;;;;;5038939;28;20387;-71
2022/07/27 00:02:50;;;;;;;5.32;1.02;;;20.80;75.60;;;;;;5036107;28;20101;-70
2022/07/27 00:05:15;;;;;;;3.35;0.82;;;20.80;75.70;;;;;;5035723;28;20439;-70
2022/07/27 00:07:41;;;;;;;2.38;0.90;;;20.80;75.70;;;;;;5035888;28;20483;-70
2022/07/27 00:10:07;;;;;;;3.60;1.10;;;20.80;75.90;;;;;;5035602;28;20075;-70
2022/07/27 00:12:33;;;;;;;1.77;0.70;;;20.70;76.30;;;;;;5035842;28;20032;-70
2022/07/27 00:14:58;;;;;;;3.63;0.68;;;20.80;76.50;;;;;;5035832;28;20021;-70
2022/07/27 00:17:25;;;;;;;3.22;1.08;;;20.70;76.50;;;;;;5035456;28;20025;-71
2022/07/27 00:19:51;;;;;;;4.75;1.00;;;20.80;76.90;;;;;;5035754;28;20021;-71
2022/07/27 00:22:17;;;;;;;2.78;0.90;;;20.70;76.60;;;;;;5035511;28;20036;-69
2022/07/27 00:24:42;;;;;;;4.93;0.75;;;20.70;76.90;;;;;;5035760;28;20026;-70
2022/07/27 00:27:08;;;;;;;5.82;1.23;;;20.70;77.30;;;;;;5035447;28;20091;-70
2022/07/27 00:29:34;;;;;;;3.42;0.75;;;20.60;77.30;;;;;;5034229;28;20033;-70
2022/07/27 00:31:59;;;;;;;7.10;1.20;;;20.60;77.00;;;;;;5035044;28;20030;-70
2022/07/27 00:34:25;;;;;;;3.03;0.70;;;20.60;77.20;;;;;;5035436;28;20022;-71
2022/07/27 00:36:51;;;;;;;2.35;1.05;;;20.60;77.60;;;;;;5035141;28;20112;-70
2022/07/27 00:39:16;;;;;;;4.35;1.30;;;20.50;77.20;;;;;;5035377;28;20029;-70
2022/07/27 00:41:42;;;;;;;3.67;0.88;;;20.60;77.60;;;;;;5035162;28;20474;-71
2022/07/27 00:44:09;;;;;;;5.07;1.15;;;20.50;77.90;;;;;;5035234;28;20072;-71
2022/07/27 00:46:35;;;;;;;4.60;1.15;;;20.50;77.60;;;;;;5034610;28;20028;-70
2022/07/27 00:49:01;;;;;;;5.45;1.17;;;20.50;77.80;;;;;;5035148;28;20033;-70
2022/07/27 00:51:27;;;;;;;5.03;1.33;;;20.50;77.80;;;;;;5034923;28;20025;-70
2022/07/27 00:53:53;;;;;;;2.90;1.08;;;20.50;78.30;;;;;;5035105;28;20030;-70
2022/07/27 00:56:19;;;;;;;5.22;1.20;;;20.50;78.50;;;;;;5033362;28;20100;-70
2022/07/27 00:58:48;;;;;;;4.38;1.00;;;20.50;78.30;;;;;;5034920;28;20431;-70
2022/07/27 01:01:15;;;;;;;4.40;0.88;;;20.40;78.70;;;;;;5034471;28;20016;-69
2022/07/27 01:03:41;;;;;;;4.70;1.10;;;20.40;78.50;;;;;;5034964;28;20030;-70
2022/07/27 01:06:07;;;;;;;3.50;1.20;;;20.40;79.00;;;;;;5034540;28;20053;-70
2022/07/27 01:08:33;;;;;;;5.32;1.25;;;20.40;79.10;;;;;;5034715;28;20152;-70
2022/07/27 01:11:01;;;;;;;5.47;1.20;;;20.30;79.10;;;;;;5034711;28;20022;-70
2022/07/27 01:13:27;;;;;;;4.85;1.40;;;20.30;79.30;;;;;;5034414;28;20033;-68
2022/07/27 01:15:52;;;;;;;6.18;0.90;;;20.30;79.30;;;;;;5034293;28;20018;-68
2022/07/27 01:18:44;;;;;;;4.80;1.00;;;20.30;79.40;;;;;;5034416;28;20024;-68
2022/07/27 01:21:10;;;;;;;3.97;1.10;;;20.30;79.30;;;;;;5034370;28;20049;-70
2022/07/27 01:23:35;;;;;;;4.97;1.05;;;20.30;79.10;;;;;;5034231;28;20040;-68
2022/07/27 01:26:02;;;;;;;4.13;1.10;;;20.30;79.70;;;;;;5034478;28;20077;-68
2022/07/27 01:28:28;;;;;;;4.30;1.27;;;20.20;79.80;;;;;;5032717;28;20033;-69
2022/07/27 01:30:55;;;;;;;4.65;0.93;;;20.20;79.70;;;;;;5033010;28;20056;-68
2022/07/27 01:33:24;;;;;;;4.28;1.08;;;20.20;80.00;;;;;;5034138;28;20478;-68
2022/07/27 01:35:51;;;;;;;3.08;0.70;;;20.20;79.90;;;;;;5034176;28;20068;-69
2022/07/27 01:38:17;;;;;;;2.63;1.08;;;20.20;79.80;;;;;;5033988;28;20026;-69
2022/07/27 01:40:42;;;;;;;2.97;1.00;;;20.10;80.10;;;;;;5034203;28;20375;-70
2022/07/27 01:43:08;;;;;;;5.13;1.17;;;20.10;80.30;;;;;;5034016;28;20030;-69
2022/07/27 01:45:34;;;;;;;3.10;1.00;;;20.10;80.40;;;;;;5033802;28;20029;-69
2022/07/27 01:48:00;;;;;;;4.13;1.20;;;20.10;80.60;;;;;;5033704;28;20033;-69
2022/07/27 01:50:25;;;;;;;3.55;1.30;;;20.10;80.60;;;;;;5034026;28;20560;-70
2022/07/27 01:52:51;;;;;;;3.67;1.13;;;20.10;80.50;;;;;;5033921;28;20053;-70
2022/07/27 01:55:16;;;;;;;4.32;1.02;;;20.00;80.40;;;;;;5033666;28;20029;-70
2022/07/27 01:57:42;;;;;;;3.28;1.33;;;20.10;80.20;;;;;;5033955;28;20030;-71
2022/07/27 02:00:10;;;;;;;4.60;1.00;;;20.00;80.00;;;;;;5033534;28;20104;-68
2022/07/27 02:02:36;;;;;;;5.90;1.10;;;20.00;80.20;;;;;;5033663;28;20026;-70
2022/07/27 02:05:02;;;;;;;2.72;1.10;;;20.00;80.70;;;;;;5033873;28;20047;-69
2022/07/27 02:07:28;;;;;;;4.05;1.23;;;20.00;80.20;;;;;;5033471;28;20033;-70
2022/07/27 02:09:54;;;;;;;2.08;0.65;;;20.00;79.80;;;;;;5033722;28;20140;-70
2022/07/27 02:12:34;;;;;;;4.15;0.90;;;20.00;80.20;;;;;;5033558;28;20497;-68
2022/07/27 02:15:21;;;;;;;6.65;1.30;;;19.90;80.00;;;;;;5033567;28;20071;-70
2022/07/27 02:17:48;;;;;;;5.18;1.25;;;19.90;79.90;;;;;;5033185;28;20061;-70
2022/07/27 02:20:19;;;;;;;3.72;1.13;;;19.90;80.10;;;;;;5033539;28;20096;-71
2022/07/27 02:22:45;;;;;;;2.45;0.85;;;19.90;80.40;;;;;;5033315;28;20037;-71
2022/07/27 02:25:12;;;;;;;2.42;0.75;;;19.90;80.20;;;;;;5032975;28;20021;-70
2022/07/27 02:27:39;;;;;;;2.15;1.15;;;19.90;80.10;;;;;;5033181;28;20041;-70
2022/07/27 02:30:05;;;;;;;4.20;1.10;;;19.80;79.90;;;;;;5032952;28;20021;-70
2022/07/27 02:32:31;;;;;;;6.35;1.20;;;19.90;80.10;;;;;;5033267;28;20057;-70
2022/07/27 02:34:57;;;;;;;4.15;1.08;;;19.80;80.20;;;;;;5033149;28;20084;-70
2022/07/27 02:37:23;;;;;;;3.35;1.10;;;19.70;80.60;;;;;;5033223;28;20032;-69
2022/07/27 02:39:49;;;;;;;3.28;1.17;;;19.70;80.70;;;;;;5033108;28;20025;-70
2022/07/27 02:42:15;;;;;;;4.60;1.30;;;19.70;80.40;;;;;;5033236;28;20040;-70
2022/07/27 02:44:41;;;;;;;5.93;1.38;;;19.70;80.50;;;;;;5032802;28;20475;-69
2022/07/27 02:47:06;;;;;;;3.13;1.13;;;19.70;80.30;;;;;;5033099;28;20122;-67
2022/07/27 02:49:32;;;;;;;2.63;1.08;;;19.60;80.30;;;;;;5032850;28;20029;-68
2022/07/27 02:51:57;;;;;;;5.65;1.40;;;19.60;80.10;;;;;;5033603;28;20033;-69
2022/07/27 02:54:24;;;;;;;3.50;0.90;;;19.60;80.50;;;;;;5033420;28;20022;-68
2022/07/27 02:56:51;;;;;;;3.90;1.60;;;19.60;80.70;;;;;;5031869;28;20029;-68
2022/07/27 02:59:18;;;;;;;3.08;1.38;;;19.60;80.90;;;;;;5030875;28;20080;-69
2022/07/27 03:01:44;;;;;;;1.80;1.38;;;19.50;81.10;;;;;;5032888;28;20027;-68
2022/07/27 03:04:10;;;;;;;2.53;1.10;;;19.50;81.40;;;;;;5032790;28;20025;-68
2022/07/27 03:06:36;;;;;;;2.25;1.33;;;19.50;81.40;;;;;;5032923;28;20080;-68
2022/07/27 03:09:03;;;;;;;4.47;1.35;;;19.40;81.50;;;;;;5032818;28;20482;-70
2022/07/27 03:11:29;;;;;;;3.03;1.38;;;19.40;81.70;;;;;;5032542;28;20368;-68
2022/07/27 03:13:54;;;;;;;4.03;1.30;;;19.40;82.30;;;;;;5032661;28;20082;-69
2022/07/27 03:16:20;;;;;;;3.50;1.52;;;19.40;82.20;;;;;;5032862;28;20026;-68
2022/07/27 03:18:46;;;;;;;4.22;1.85;;;19.30;82.10;;;;;;5032756;28;20022;-69
2022/07/27 03:21:12;;;;;;;3.10;1.45;;;19.30;82.40;;;;;;5032744;28;20033;-67
2022/07/27 03:23:38;;;;;;;9.18;1.85;;;19.30;82.70;;;;;;5032895;28;20032;-67
2022/07/27 03:26:04;;;;;;;4.32;1.73;;;19.30;82.80;;;;;;5032137;28;20021;-67
2022/07/27 03:28:30;;;;;;;3.15;1.30;;;19.30;82.90;;;;;;5032790;28;20061;-69
2022/07/27 03:30:56;;;;;;;3.47;1.63;;;19.30;82.90;;;;;;5032706;28;20091;-67
2022/07/27 03:33:22;;;;;;;3.45;1.67;;;19.30;83.00;;;;;;5032805;28;20030;-67
2022/07/27 03:35:47;;;;;;;3.47;1.60;;;19.20;82.80;;;;;;5032410;28;20041;-67
2022/07/27 03:38:13;;;;;;;6.38;1.30;;;19.20;83.10;;;;;;5034244;28;20029;-68
2022/07/27 03:40:39;;;;;;;4.78;1.55;;;19.20;83.30;;;;;;5035817;28;20467;-67
2022/07/27 03:43:05;;;;;;;4.18;1.70;;;19.20;83.20;;;;;;5036585;28;20021;-70
2022/07/27 03:45:30;;;;;;;4.05;1.73;;;19.10;83.20;;;;;;5036370;28;20400;-68
2022/07/27 03:47:56;;;;;;;5.47;2.30;;;19.10;83.30;;;;;;5036228;28;20467;-67
2022/07/27 03:50:22;;;;;;;2.92;1.63;;;19.10;83.50;;;;;;5036116;28;20090;-67
2022/07/27 03:52:47;;;;;;;3.22;1.58;;;19.10;83.30;;;;;;5036259;28;20128;-68
2022/07/27 03:55:13;;;;;;;2.17;1.42;;;19.10;83.40;;;;;;5036008;28;20024;-67
2022/07/27 03:57:39;;;;;;;2.45;1.45;;;19.00;83.30;;;;;;5034810;28;20163;-67
2022/07/27 04:00:06;;;;;;;5.63;1.73;;;19.00;83.30;;;;;;5035754;28;20025;-68
2022/07/27 04:02:31;;;;;;;4.50;1.40;;;19.00;83.30;;;;;;5040596;28;20026;-68
2022/07/27 04:04:57;;;;;;;3.38;1.55;;;18.90;83.10;;;;;;5037277;28;20391;-67
2022/07/27 04:07:22;;;;;;;3.05;1.60;;;18.90;83.10;;;;;;5055795;28;20467;-69
2022/07/27 04:09:48;;;;;;;7.82;1.95;;;18.90;83.20;;;;;;5055401;28;20068;-67
2022/07/27 04:12:13;;;;;;;6.47;1.80;;;19.00;83.30;;;;;;5054383;28;20021;-67
2022/07/27 04:14:39;;;;;;;3.17;1.95;;;18.90;83.30;;;;;;5053515;28;20535;-69
2022/07/27 04:17:05;;;;;;;7.18;1.80;;;18.90;83.40;;;;;;5045199;28;20025;-68
2022/07/27 04:19:30;;;;;;;4.40;2.17;;;18.90;83.20;;;;;;5040504;28;20151;-67
2022/07/27 04:21:56;;;;;;;4.45;2.05;;;18.80;83.10;;;;;;5039175;28;20022;-68
2022/07/27 04:24:22;;;;;;;3.10;1.80;;;18.90;83.40;;;;;;5038524;28;20466;-69
2022/07/27 04:26:47;;;;;;;3.10;1.60;;;18.80;83.90;;;;;;5035583;28;20037;-68
2022/07/27 04:29:13;;;;;;;2.65;1.50;;;18.90;83.70;;;;;;5035452;28;20471;-69
2022/07/27 04:31:39;;;;;;;4.53;1.70;;;18.80;83.80;;;;;;5035113;28;20026;-69
2022/07/27 04:34:04;;;;;;;4.00;1.40;;;18.80;83.70;;;;;;5035438;28;20379;-68
2022/07/27 04:36:30;;;;;;;2.75;1.70;;;18.80;83.80;;;;;;5035246;28;20029;-67
2022/07/27 04:38:55;;;;;;;3.90;1.70;;;18.80;83.90;;;;;;5034889;28;20442;-67
2022/07/27 04:41:22;;;;;;;4.85;1.65;;;18.80;84.00;;;;;;5035435;28;20136;-68
2022/07/27 04:43:47;;;;;;;3.88;1.90;;;18.80;84.10;;;;;;5035397;28;20057;-68
2022/07/27 04:46:14;;;;;;;5.22;1.92;;;18.80;83.90;;;;;;5034929;28;20463;-70
2022/07/27 04:48:40;;;;;;;3.88;1.88;;;18.90;84.00;;;;;;5034666;28;20033;-68
2022/07/27 04:51:05;;;;;;;3.45;1.77;;;18.90;84.30;;;;;;5034960;28;20036;-67
2022/07/27 04:53:31;;;;;;;5.20;1.70;;;18.80;84.20;;;;;;5035070;28;20053;-67
2022/07/27 04:55:57;;;;;;;3.33;1.90;;;18.80;84.10;;;;;;5034822;28;20030;-69
2022/07/27 04:58:22;;;;;;;3.70;1.98;;;18.90;84.20;;;;;;5034973;28;20549;-68
2022/07/27 05:00:48;;;;;;;7.22;1.90;;;18.80;84.40;;;;;;5034519;28;20061;-69
2022/07/27 05:03:13;;;;;;;3.13;1.63;;;18.90;84.40;;;;;;5034913;28;20120;-69
2022/07/27 05:05:39;;;;;;;14.48;2.85;;;18.90;84.60;;;;;;5034241;28;20034;-67
2022/07/27 05:08:05;;;;;;;3.35;1.85;;;18.80;84.20;;;;;;5031523;28;20084;-68
2022/07/27 05:10:30;;;;;;;3.63;1.77;;;18.80;83.80;;;;;;5034827;28;20071;-68
2022/07/27 05:12:56;;;;;;;4.03;1.67;;;18.70;83.90;;;;;;5033295;28;20064;-68
2022/07/27 05:15:22;;;;;;;2.72;1.63;;;18.70;84.10;;;;;;5034689;28;20022;-68
2022/07/27 05:17:47;;;;;;;3.08;1.83;;;18.70;84.20;;;;;;5034646;28;20168;-68
2022/07/27 05:20:14;;;;;;;4.88;1.88;;;18.70;84.40;;;;;;5034864;28;20025;-67
2022/07/27 05:22:39;;;;;;;4.30;1.92;;;18.70;84.50;;;;;;5034090;28;20029;-67
2022/07/27 05:25:06;;;;;;;4.75;1.58;;;18.70;84.80;;;;;;5034468;28;20033;-68
2022/07/27 05:27:32;;;;;;;2.67;1.60;;;18.80;85.10;;;;;;5034439;28;20026;-67
2022/07/27 05:29:57;;;;;;;7.07;1.92;;;18.80;84.90;;;;;;5034220;28;20079;-67
2022/07/27 05:32:23;;;;;;;4.00;1.95;;;18.90;84.90;;;;;;5034579;28;20033;-68
2022/07/27 05:34:49;;;;;;;7.28;2.40;;;19.00;84.80;;;;;;5034524;28;20080;-68
2022/07/27 05:37:15;;;;;;;7.88;2.40;;;19.00;84.90;;;;;;5033829;28;20041;-67
2022/07/27 05:39:41;;;;;;;5.18;1.85;;;19.10;85.10;;;;;;5034234;28;20021;-67
2022/07/27 05:42:07;;;;;;;5.38;1.90;;;19.20;84.80;;;;;;5033907;28;20079;-67
2022/07/27 05:44:33;;;;;;;5.88;1.60;;;19.20;84.70;;;;;;5034075;28;20021;-66
2022/07/27 05:46:58;;;;;;;5.32;1.30;;;19.30;84.90;;;;;;5032622;28;20052;-67
2022/07/27 05:49:24;;;;;;;2.40;1.10;;;19.30;84.20;;;;;;5034103;28;20030;-66
2022/07/27 05:51:50;;;;;;;3.15;1.00;;;19.20;84.30;;;;;;5033741;28;20018;-67
2022/07/27 05:54:15;;;;;;;4.28;1.38;;;19.20;84.80;;;;;;5033911;28;20036;-67
2022/07/27 05:56:41;;;;;;;4.28;1.52;;;19.10;85.20;;;;;;5033936;28;20230;-66
2022/07/27 05:59:06;;;;;;;4.40;1.60;;;19.10;85.30;;;;;;5033742;28;20396;-66
2022/07/27 06:01:32;;;;;;;4.10;1.10;;;19.20;85.50;;;;;;5033052;28;20403;-66
2022/07/27 06:03:57;;;;;;;2.38;1.00;;;19.30;84.60;;;;;;5033920;28;20139;-66
2022/07/27 06:09:08;;;;;;;4.63;1.10;;;19.30;83.70;;;;;;5033649;28;20040;-66
2022/07/27 06:11:35;;;;;;;3.80;0.90;;;19.30;83.50;;;;;;5033838;28;20087;-67
2022/07/27 06:14:01;;;;;;;3.15;1.00;;;19.30;83.50;;;;;;5033425;28;20021;-67
2022/07/27 06:16:26;;;;;;;1.77;0.93;;;19.30;84.20;;;;;;5033707;28;20032;-67
2022/07/27 06:18:52;;;;;;;3.88;1.13;;;19.30;84.00;;;;;;5033258;28;20025;-67
2022/07/27 06:21:18;;;;;;;2.35;0.93;;;19.20;84.30;;;;;;5033425;28;20115;-66
2022/07/27 06:23:47;;;;;;;4.05;1.08;;;19.30;84.40;;;;;;5033430;28;20033;-68
2022/07/27 06:26:12;;;;;;;2.55;0.75;;;19.30;84.00;;;;;;5033298;28;20089;-68
2022/07/27 06:28:38;;;;;;;3.08;1.08;;;19.30;84.00;;;;;;5033646;28;20116;-66
2022/07/27 06:31:04;;;;;;;2.58;0.68;;;19.30;84.10;;;;;;5041450;28;20033;-67
2022/07/27 06:33:30;;;;;;;5.20;0.90;;;19.30;84.20;;;;;;5063936;28;20066;-66
2022/07/27 06:35:59;;;;;;;4.10;0.80;;;19.40;84.30;;;;;;5071651;28;20047;-67
2022/07/27 06:38:25;;;;;;;3.15;0.63;;;19.40;84.40;;;;;;5071013;28;20074;-67
2022/07/27 06:40:51;;;;;;;5.05;1.15;;;19.50;84.30;;;;;;5070906;28;20059;-67
2022/07/27 06:43:26;;;;;;;5.45;0.90;;;19.40;84.20;;;;;;5053132;28;20028;-68
2022/07/27 06:45:53;;;;;;;5.72;0.70;;;19.50;84.60;;;;;;5071059;28;20457;-67
2022/07/27 06:48:20;;;;;;;2.80;0.68;;;19.50;85.00;;;;;;5070745;28;20042;-68
2022/07/27 06:50:46;;;;;;;2.72;0.70;;;19.70;84.40;;;;;;5071399;28;20023;-67
2022/07/27 06:53:11;;;;;;;4.30;0.50;;;19.90;83.70;;;;;;5073189;28;20021;-67
2022/07/27 06:55:37;;;;;;;2.67;0.60;;;19.90;83.40;;;;;;5073277;28;20361;-68
2022/07/27 06:58:03;;;;;;;3.13;0.40;;;20.00;83.40;;;;;;5072838;28;20089;-67
2022/07/27 07:00:28;;;;;;;5.13;0.60;;;20.10;83.50;;;;;;5072948;28;20029;-70
2022/07/27 07:02:59;;;;;;;2.13;0.60;;;20.10;84.80;;;;;;5072946;28;20024;-61
2022/07/27 07:05:25;;;;;;;2.83;0.68;;;19.80;86.00;;;;;;5072515;28;20146;-60
2022/07/27 07:07:52;;;;;;;2.67;0.75;;;19.60;86.70;;;;;;5071479;28;20115;-62
2022/07/27 07:10:18;;;;;;;7.97;0.88;;;19.60;87.30;;;;;;5073010;28;20086;-67
2022/07/27 07:12:43;;;;;;;2.70;0.40;;;19.60;87.20;;;;;;5075322;28;20052;-60
2022/07/27 07:15:10;;;;;;;5.03;0.30;;;19.60;86.10;;;;;;5076682;28;20551;-61
2022/07/27 07:17:35;;;;;;;4.72;0.77;;;19.70;86.70;;;;;;5076980;28;20032;-60
2022/07/27 07:20:03;;;;;;;2.70;0.63;;;19.70;87.30;;;;;;5076487;28;20017;-60
2022/07/27 07:22:28;;;;;;;2.92;0.40;;;19.70;86.90;;;;;;5076809;28;20024;-60
2022/07/27 07:24:54;;;;;;;3.03;0.68;;;19.70;86.50;;;;;;5075253;28;20458;-62
2022/07/27 07:27:22;;;;;;;2.42;0.43;;;19.80;85.80;;;;;;5075106;28;20043;-61
2022/07/27 07:29:48;;;;;;;2.30;0.30;;;19.90;85.50;;;;;;5058845;28;20509;-61
2022/07/27 07:32:15;;;;;;;3.28;0.57;;;20.00;84.60;;;;;;5046238;28;20108;-64
2022/07/27 07:34:41;;;;;;;2.03;0.20;;;20.00;82.80;;;;;;5041286;28;20029;-61
2022/07/27 07:37:07;;;;;;;4.88;0.40;;;20.00;82.50;;;;;;5068144;28;20398;-62
2022/07/27 07:39:33;;;;;;;2.55;0.40;;;20.10;81.70;;;;;;5058473;28;20021;-61
2022/07/27 07:41:58;;;;;;;3.97;0.57;;;20.20;82.50;;;;;;5047091;28;20271;-61
2022/07/27 07:44:25;;;;;;;3.38;0.40;;;20.20;82.50;;;;;;5050350;28;20032;-61
2022/07/27 07:46:50;;;;;;;2.25;0.55;;;20.30;82.10;;;;;;5042426;28;20021;-63
2022/07/27 07:49:16;;;;;;;3.95;0.60;;;20.30;82.00;;;;;;5049502;28;20627;-61
2022/07/27 07:51:42;;;;;;;2.22;0.43;;;20.40;80.60;;;;;;5057464;28;20074;-61
2022/07/27 07:54:07;;;;;;;3.45;0.60;;;20.50;80.00;;;;;;5056476;28;20016;-62
2022/07/27 07:56:33;;;;;;;2.00;0.52;;;20.60;76.80;;;;;;5057932;28;20680;-61
2022/07/27 07:59:00;;;;;;;2.88;0.55;;;20.60;78.50;;;;;;5048461;28;20033;-61
2022/07/27 08:01:25;;;;;;;2.95;0.35;;;20.70;77.80;;;;;;5043865;28;20395;-67
2022/07/27 08:03:51;;;;;;;2.75;0.30;;;20.80;77.70;;;;;;5043961;28;20486;-61
2022/07/27 08:06:18;;;;;;;4.68;0.70;;;20.90;74.60;;;;;;5054470;28;20028;-62
2022/07/27 08:08:43;;;;;;;2.17;0.45;;;21.00;73.70;;;;;;5053553;28;20044;-60
2022/07/27 08:11:09;;;;;;;2.47;0.45;;;21.10;71.80;;;;;;5051361;28;20033;-63
2022/07/27 08:13:34;;;;;;;3.78;0.63;;;21.20;71.80;;;;;;5052264;28;20052;-61
2022/07/27 08:16:00;;;;;;;2.33;0.55;;;21.20;71.80;;;;;;5036600;28;20102;-61
2022/07/27 08:18:26;;;;;;;3.33;0.40;;;21.20;71.40;;;;;;5038621;28;20386;-65
2022/07/27 08:20:51;;;;;;;3.13;0.60;;;21.30;71.00;;;;;;5042896;28;20032;-62
2022/07/27 08:23:17;;;;;;;1.85;0.50;;;21.30;70.60;;;;;;5047048;28;20025;-62
2022/07/27 08:25:43;;;;;;;3.20;0.77;;;21.30;70.70;;;;;;5040645;28;20045;-62
2022/07/27 08:28:09;;;;;;;3.25;1.00;;;21.30;72.50;;;;;;5041485;28;20040;-69
2022/07/27 08:30:34;;;;;;;2.72;0.40;;;21.30;71.90;;;;;;5055036;28;20547;-61
2022/07/27 08:33:02;;;;;;;2.10;0.35;;;21.30;69.40;;;;;;5043235;28;20053;-71
2022/07/27 08:35:29;;;;;;;5.20;0.50;;;21.40;69.40;;;;;;5041587;28;20439;-61
2022/07/27 08:37:54;;;;;;;3.83;0.77;;;21.40;69.40;;;;;;5044011;28;20104;-62
2022/07/27 08:40:20;;;;;;;3.25;0.50;;;21.50;69.30;;;;;;5061386;28;20075;-62
2022/07/27 08:42:46;;;;;;;4.50;0.63;;;21.60;69.60;;;;;;5058469;28;20033;-62
2022/07/27 08:45:15;;;;;;;2.88;0.40;;;21.50;69.20;;;;;;5054885;28;20070;-64
2022/07/27 08:47:41;;;;;;;2.75;0.45;;;21.60;68.00;;;;;;5044817;28;20037;-61
2022/07/27 08:50:24;;;;;;;3.00;0.30;;;21.60;66.70;;;;;;5068735;28;20028;-61
2022/07/27 08:53:02;;;;;;;3.75;0.60;;;21.60;67.70;;;;;;5059602;28;20112;-61
2022/07/27 08:55:33;;;;;;;3.50;0.57;;;21.60;69.50;;;;;;5041919;28;20474;-61
2022/07/27 08:57:59;;;;;;;4.00;0.50;;;21.60;70.50;;;;;;5049797;28;20040;-61
2022/07/27 09:00:25;;;;;;;2.63;0.20;;;21.60;70.80;;;;;;5054664;28;20029;-61
2022/07/27 09:02:52;;;;;;;4.30;0.43;;;21.70;71.60;;;;;;5054886;28;20017;-63
2022/07/27 09:05:18;;;;;;;2.47;0.60;;;21.70;71.50;;;;;;5053029;28;20029;-62
2022/07/27 09:07:43;;;;;;;3.22;0.32;;;21.70;71.60;;;;;;5050346;28;20431;-65
2022/07/27 09:10:10;;;;;;;1.83;0.68;;;21.70;71.60;;;;;;5034685;28;20039;-63
2022/07/27 09:12:35;;;;;;;3.58;0.30;;;21.70;71.80;;;;;;5034874;28;20156;-65
2022/07/27 09:15:12;;;;;;;1.67;0.50;;;21.70;69.70;;;;;;5034169;28;20100;-61
2022/07/27 09:17:40;;;;;;;3.10;0.65;;;21.80;69.00;;;;;;5034684;28;20048;-70
2022/07/27 09:20:09;;;;;;;2.72;0.30;;;21.80;68.30;;;;;;5034940;28;20022;-64
2022/07/27 09:22:52;;;;;;;1.42;0.40;;;21.70;68.80;;;;;;5034452;28;20471;-65
2022/07/27 09:25:27;;;;;;;2.40;0.32;;;21.80;68.20;;;;;;5034703;28;20497;-61
2022/07/27 09:27:55;;;;;;;1.88;0.45;;;21.80;66.50;;;;;;5034097;28;20068;-61
2022/07/27 09:30:21;;;;;;;4.75;0.60;;;21.80;67.00;;;;;;5034259;28;20030;-62
2022/07/27 09:32:58;;;;;;;2.33;0.45;;;21.80;68.10;;;;;;5034308;28;20017;-62
2022/07/27 09:35:30;;;;;;;3.00;0.50;;;21.80;68.40;;;;;;5034177;28;20029;-61
2022/07/27 09:38:22;;;;;;;3.75;0.40;;;21.80;66.90;;;;;;5034143;28;20132;-61
2022/07/27 09:40:58;;;;;;;2.88;0.60;;;21.80;66.30;;;;;;5034288;28;20462;-65
2022/07/27 09:43:24;;;;;;;1.48;0.50;;;21.80;64.40;;;;;;5033789;28;20017;-63
2022/07/27 09:45:49;;;;;;;2.85;0.70;;;21.80;64.40;;;;;;5034132;28;20056;-61
2022/07/27 09:48:20;;;;;;;3.33;0.70;;;21.80;66.00;;;;;;5034025;28;20038;-62
2022/07/27 09:50:58;;;;;;;3.60;0.63;;;21.80;65.60;;;;;;5033929;28;20018;-69
2022/07/27 09:53:26;;;;;;;3.03;0.50;;;21.90;66.30;;;;;;5033802;28;20025;-62
2022/07/27 09:55:57;;;;;;;2.60;0.63;;;21.90;66.00;;;;;;5034016;28;20045;-63
2022/07/27 09:58:39;;;;;;;1.90;0.60;;;21.90;65.20;;;;;;5033308;28;20032;-68
2022/07/27 10:01:05;;;;;;;2.30;0.45;;;21.90;66.10;;;;;;5033895;28;20036;-68
2022/07/27 10:03:31;;;;;;;2.60;0.60;;;21.90;65.80;;;;;;5033507;28;20032;-62
2022/07/27 10:05:57;;;;;;;2.33;0.52;;;21.90;66.80;;;;;;5033684;28;20025;-65
2022/07/27 10:08:23;;;;;;;4.30;0.80;;;21.90;67.90;;;;;;5033393;28;20029;-66
2022/07/27 10:10:49;;;;;;;3.10;0.82;;;21.90;68.70;;;;;;5033655;28;20025;-70
2022/07/27 10:13:15;;;;;;;5.95;0.90;;;21.90;68.80;;;;;;5033151;28;20017;-61
2022/07/27 10:15:41;;;;;;;7.65;1.13;;;21.90;67.70;;;;;;5033542;28;20029;-66
2022/07/27 10:18:18;;;;;;;3.25;0.60;;;22.00;67.60;;;;;;5033366;28;20551;-69
2022/07/27 10:20:45;;;;;;;5.00;0.77;;;22.10;68.90;;;;;;5033534;28;20029;-64
2022/07/27 10:23:28;;;;;;;2.63;0.68;;;22.10;68.00;;;;;;5033444;28;20045;-67
2022/07/27 10:26:31;;;;;;;3.95;0.85;;;22.10;67.50;;;;;;5033250;28;20021;-66
2022/07/27 10:29:03;;;;;;;4.95;1.00;;;22.20;67.60;;;;;;5033018;28;20088;-65
2022/07/27 10:31:32;;;;;;;4.03;0.70;;;22.10;68.00;;;;;;5032122;28;20033;-70
2022/07/27 10:34:00;;;;;;;2.70;0.73;;;22.10;67.90;;;;;;5033093;28;20018;-65
2022/07/27 10:36:26;;;;;;;2.47;0.63;;;22.10;67.70;;;;;;5033165;28;20029;-72
2022/07/27 10:38:55;;;;;;;5.35;0.82;;;22.10;67.70;;;;;;5033071;28;20028;-68
2022/07/27 10:41:30;;;;;;;2.78;0.70;;;22.10;67.10;;;;;;5031767;28;20040;-68
2022/07/27 10:44:17;;;;;;;2.22;0.85;;;22.10;67.10;;;;;;5033223;28;20025;-71
2022/07/27 10:46:59;;;;;;;4.32;1.00;;;22.10;65.70;;;;;;5032528;28;20032;-72
2022/07/27 10:49:28;;;;;;;5.18;1.17;;;22.10;65.50;;;;;;5033041;28;20033;-71
2022/07/27 10:51:55;;;;;;;3.10;0.70;;;22.00;65.00;;;;;;5033187;28;20029;-66
2022/07/27 10:54:38;;;;;;;2.88;0.60;;;22.00;64.20;;;;;;5032834;28;20033;-69
2022/07/27 10:57:06;;;;;;;3.53;0.63;;;22.00;64.90;;;;;;5032714;28;20481;-68
2022/07/27 10:59:38;;;;;;;1.75;0.43;;;22.10;63.70;;;;;;5032809;28;20404;-69
2022/07/27 11:02:05;;;;;;;4.30;0.50;;;22.10;63.30;;;;;;5033284;28;20024;-72
2022/07/27 11:04:41;;;;;;;2.47;0.40;;;22.10;62.30;;;;;;5032569;28;20032;-70
2022/07/27 11:07:07;;;;;;;1.55;0.70;;;22.20;61.90;;;;;;5032888;28;20368;-71
2022/07/27 11:09:37;;;;;;;2.75;0.68;;;22.20;61.80;;;;;;5032768;28;20550;-66
2022/07/27 11:12:04;;;;;;;2.72;0.45;;;22.20;62.10;;;;;;5032618;28;20530;-72
2022/07/27 11:14:41;;;;;;;6.05;1.05;;;22.20;62.70;;;;;;5032879;28;20021;-67
2022/07/27 11:17:07;;;;;;;3.28;0.70;;;22.20;62.50;;;;;;5031493;28;20042;-69
2022/07/27 11:19:32;;;;;;;1.60;0.50;;;22.20;62.00;;;;;;5032666;28;20014;-71
2022/07/27 11:21:59;;;;;;;5.00;0.55;;;22.20;61.90;;;;;;5031705;28;20498;-68
2022/07/27 11:24:26;;;;;;;6.03;0.80;;;22.20;61.40;;;;;;5032409;28;20458;-70
2022/07/27 11:26:52;;;;;;;2.35;0.43;;;22.10;60.90;;;;;;5032616;28;20025;-68
2022/07/27 11:29:20;;;;;;;4.25;0.40;;;22.10;60.90;;;;;;5032757;28;20107;-63
2022/07/27 11:31:50;;;;;;;3.00;0.50;;;22.20;60.10;;;;;;5032931;28;20068;-65
2022/07/27 11:34:16;;;;;;;3.05;0.65;;;22.20;60.30;;;;;;5031465;28;20017;-68
2022/07/27 11:36:50;;;;;;;2.30;0.50;;;22.20;59.70;;;;;;5032365;28;20120;-67
2022/07/27 11:39:27;;;;;;;2.88;0.55;;;22.20;60.00;;;;;;5032220;28;20029;-66
2022/07/27 11:41:54;;;;;;;3.05;0.45;;;22.20;60.30;;;;;;5032939;28;20018;-66
2022/07/27 11:44:19;;;;;;;1.90;0.60;;;22.20;59.50;;;;;;5032696;28;20079;-65
2022/07/27 11:46:47;;;;;;;2.20;0.40;;;22.20;58.60;;;;;;5032424;28;20021;-70
2022/07/27 11:49:25;;;;;;;1.85;0.40;;;22.20;57.50;;;;;;5032531;28;20059;-69
2022/07/27 11:51:52;;;;;;;2.95;0.20;;;22.20;59.20;;;;;;5031067;28;20026;-68
2022/07/27 11:54:22;;;;;;;3.13;0.32;;;22.20;57.90;;;;;;5030913;28;20112;-71
2022/07/27 11:56:50;;;;;;;1.20;0.32;;;22.20;57.00;;;;;;5031070;28;20021;-66
2022/07/27 11:59:18;;;;;;;3.50;0.70;;;22.30;56.60;;;;;;5034007;28;20507;-64
2022/07/27 12:01:52;;;;;;;1.33;0.20;;;22.20;56.40;;;;;;5035819;28;20196;-66
2022/07/27 12:04:22;;;;;;;1.48;0.30;;;22.30;56.50;;;;;;5035884;28;20052;-62
2022/07/27 12:07:09;;;;;;;2.08;0.35;;;22.30;56.30;;;;;;5035928;28;20049;-63
2022/07/27 12:09:38;;;;;;;1.83;0.40;;;22.30;55.70;;;;;;5035476;28;20100;-64
2022/07/27 12:12:15;;;;;;;2.20;0.20;;;22.30;56.00;;;;;;5035564;28;20074;-67
2022/07/27 12:14:47;;;;;;;1.75;0.30;;;22.30;57.60;;;;;;5035857;28;20021;-64
2022/07/27 12:17:29;;;;;;;1.10;0.20;;;22.30;57.90;;;;;;5035851;28;20056;-64
2022/07/27 12:20:00;;;;;;;1.65;0.40;;;22.30;57.30;;;;;;5035721;28;20021;-65
2022/07/27 12:22:27;;;;;;;2.67;0.30;;;22.30;57.30;;;;;;5035230;28;20026;-66
2022/07/27 12:24:54;;;;;;;3.17;0.47;;;22.30;56.90;;;;;;5035721;28;20403;-69
2022/07/27 12:27:25;;;;;;;3.53;0.57;;;22.30;56.70;;;;;;5034128;28;20037;-65
2022/07/27 12:30:02;;;;;;;1.85;0.32;;;22.30;55.90;;;;;;5035529;28;20091;-66
2022/07/27 12:32:29;;;;;;;2.38;0.30;;;22.40;55.90;;;;;;5035361;28;20018;-64
2022/07/27 12:34:56;;;;;;;5.00;0.75;;;22.40;56.00;;;;;;5035490;28;20022;-70
2022/07/27 12:37:21;;;;;;;3.53;0.45;;;22.40;56.30;;;;;;5035303;28;20029;-63
2022/07/27 12:39:48;;;;;;;1.65;0.40;;;22.40;56.80;;;;;;5035204;28;20029;-64
2022/07/27 12:42:14;;;;;;;1.38;0.25;;;22.40;56.40;;;;;;5035375;28;20104;-64
2022/07/27 12:44:43;;;;;;;2.35;0.40;;;22.40;59.00;;;;;;5033959;28;20123;-64
2022/07/27 12:50:04;;;;;;;2.08;0.50;;;22.40;57.30;;;;;;5035489;28;20049;-69
2022/07/27 12:52:30;;;;;;;3.17;0.50;;;22.50;56.80;;;;;;5034668;28;20036;-67
2022/07/27 12:54:56;;;;;;;2.38;0.30;;;22.40;57.00;;;;;;5035157;28;20032;-70